KONT/ONT METAR and TAF weather

Enter ICAO airport designator
Station Type Date Time Source
KONT METAR 2020/02/24 08:53 UTC NOAA

KONT 240853Z 07003KT 9SM CLR 09/07 A3024 RMK AO2 SLP240 T00890067 56001 $


Station Type Date Time Source
KONT Decoded METAR 2020/02/24 08:53 UTC NOAA

ONTARIO INTERNATIONAL AIRPORT, CA, United States (KONT) 34-03N 117-35W 275M
Feb 24, 2020 - 03:53 AM EST / 2020.02.24 0853 UTC
Wind: from the ENE (070 degrees) at 3 MPH (3 KT):0
Visibility: 9 mile(s):0
Sky conditions: clear
Temperature: 48.0 F (8.9 C)
Dew Point: 44.1 F (6.7 C)
Relative Humidity: 86%
Pressure (altimeter): 30.24 in. Hg (1024 hPa)
Pressure tendency: 0.00 inches (0.1 hPa) lower than three hours ago
ob: KONT 240853Z 07003KT 9SM CLR 09/07 A3024 RMK AO2 SLP240 T00890067 56001
cycle: 9

Station Type Date Time Source
KONT TAF 2020/02/24 06:22 UTC NOAA

TAF KONT 240520Z 2406/2512 VRB04KT P6SM SCT040
FM241700 VRB03KT P6SM SKC
FM242000 26010KT P6SM SKC
FM250300 VRB05KT P6SM SKC

Example: see airport list